Flight Track Log - Related Links

Times and Time Zones

All times are in EDT time to prevent confusion due to time zone crossing. See the SWA3206 flight status page for this flight to view local times or setup timezone preferences in your user account.

Time Position Orientation Groundspeed Altitude Reporting Facility
EDT Latitude Longitude Course Direction KTS MPH feet Rate Location/Type
Thu 08:46:49 PM 33.4333 -112.1000 270° West 209 241 4,300  Level Phoenix TRACON
Thu 08:47:14 PM 33.4369 -112.1244 280° West 207 238 5,100 2,759 Climbing Albuquerque Center
Thu 08:48:16 PM 33.4714 -112.1839 305° West 250 288 8,300 2,710 Climbing Albuquerque Center
Thu 08:49:18 PM 33.5372 -112.1647 14° North 246 283 10,700 2,371 Climbing Albuquerque Center
Thu 08:50:20 PM 33.5686 -112.0664 69° East 337 388 13,200 2,732 Climbing Albuquerque Center
Thu 08:51:21 PM 33.5861 -111.9517 80° East 351 404 16,300 3,024 Climbing Albuquerque Center
Thu 08:52:23 PM 33.6056 -111.8289 79° East 370 426 19,400 2,855 Climbing Albuquerque Center
Thu 08:53:25 PM 33.6242 -111.7014 80° East 385 443 22,200 2,661 Climbing Albuquerque Center
Thu 08:54:27 PM 33.6481 -111.5411 80° East 405 466 24,900 2,341 Climbing Albuquerque Center
Thu 08:55:28 PM 33.6694 -111.4025 79° East 421 484 27,000 1,951 Climbing Albuquerque Center
Thu 08:56:30 PM 33.6928 -111.2583 79° East 438 504 28,900 1,790 Climbing Albuquerque Center
Thu 08:57:32 PM 33.7414 -111.1200 67° East 448 516 30,700 1,742 Climbing Albuquerque Center
Thu 08:58:34 PM 33.7928 -110.9789 66° East 458 527 32,500 1,742 Climbing Albuquerque Center
Thu 08:59:36 PM 33.8419 -110.8392 67° East 459 528 34,300 1,220 Climbing Albuquerque Center
Thu 09:00:37 PM 33.9011 -110.6708 67° East 458 527 35,000 1,024 Climbing Albuquerque Center
Thu 09:01:39 PM 33.9492 -110.5281 68° East 461 531 36,400 1,210 Climbing Albuquerque Center
Thu 09:02:41 PM 33.9983 -110.3867 67° East 463 533 37,500 1,016 Climbing Albuquerque Center
Thu 09:03:43 PM 34.0494 -110.2428 67° East 468 539 38,500 732 Climbing Albuquerque Center
Thu 09:04:44 PM 34.1067 -110.0764 67° East 468 539 39,000 244 Climbing Albuquerque Center
Thu 09:05:46 PM 34.1556 -109.9361 67° East 472 543 39,000  Level Albuquerque Center
Thu 09:06:48 PM 34.2122 -109.7700 68° East 477 549 39,000  Level Albuquerque Center
Thu 09:07:49 PM 34.2603 -109.6286 68° East 477 549 39,000  Level Albuquerque Center
Thu 09:08:51 PM 34.3161 -109.4628 68° East 478 550 39,000  Level Albuquerque Center
Thu 09:09:53 PM 34.3678 -109.3200 66° East 481 554 39,000  Level Albuquerque Center
Thu 09:10:54 PM 34.4186 -109.1781 66° East 482 555 39,000  Level Albuquerque Center
Thu 09:11:56 PM 34.4775 -109.0128 67° East 480 552 39,000  Level Albuquerque Center
Thu 09:12:58 PM 34.5272 -108.8706 67° East 480 552 39,000  Level Albuquerque Center
Thu 09:13:59 PM 34.5850 -108.7047 67° East 479 551 39,000  Level Albuquerque Center
Thu 09:15:01 PM 34.6344 -108.5644 67° East 476 548 39,000  Level Albuquerque Center
Thu 09:16:02 PM 34.6825 -108.4269 67° East 477 549 39,000  Level Albuquerque Center
Thu 09:17:04 PM 34.7336 -108.2800 67° East 474 545 39,000  Level Albuquerque Center
Thu 09:18:06 PM 34.7936 -108.1036 67° East 471 542 39,000  Level Albuquerque Center
Thu 09:19:07 PM 34.8444 -107.9564 67° East 472 543 39,000  Level Albuquerque Center
Thu 09:20:09 PM 34.8953 -107.8097 67° East 470 541 39,000  Level Albuquerque Center
Thu 09:21:10 PM 34.9456 -107.6619 67° East 471 542 39,000  Level Albuquerque Center
Thu 09:22:12 PM 34.9944 -107.5131 68° East 472 543 39,000  Level Albuquerque Center
Thu 09:23:14 PM 35.0444 -107.3644 68° East 473 544 39,000  Level Albuquerque Center
Thu 09:24:15 PM 35.0942 -107.2142 68° East 474 545 39,000  Level Albuquerque Center
Thu 09:25:17 PM 35.1481 -107.0542 68° East 481 554 39,000  Level Albuquerque Center
Thu 09:26:18 PM 35.2028 -106.8864 68° East 478 550 39,000  Level Albuquerque Center
Thu 09:27:20 PM 35.2522 -106.7408 67° East 482 555 39,000  Level Albuquerque Center
Thu 09:28:22 PM 35.3086 -106.5714 68° East 482 555 39,000  Level Albuquerque Center
Thu 09:29:23 PM 35.3572 -106.4142 69° East 480 552 39,000  Level Albuquerque Center
Thu 09:30:25 PM 35.4072 -106.2642 68° East 478 550 39,000  Level Albuquerque Center
Thu 09:31:26 PM 35.4569 -106.1114 68° East 480 552 39,000  Level Albuquerque Center
Thu 09:32:28 PM 35.5044 -105.9597 69° East 478 550 39,000  Level Albuquerque Center
Thu 09:33:29 PM 35.5556 -105.7953 69° East 479 551 39,000  Level Albuquerque Center
Thu 09:34:31 PM 35.6050 -105.6408 68° East 481 554 39,000  Level Albuquerque Center
Thu 09:35:32 PM 35.6533 -105.4861 69° East 479 551 39,000  Level Albuquerque Center
Thu 09:36:34 PM 35.7017 -105.3331 69° East 477 549 39,000  Level Albuquerque Center
Thu 09:37:35 PM 35.7486 -105.1794 69° East 475 547 39,000  Level Albuquerque Center
Thu 09:38:36 PM 35.7950 -105.0242 70° East 476 548 39,000  Level Albuquerque Center
Thu 09:39:38 PM 35.8428 -104.8706 69° East 476 548 39,000  Level Albuquerque Center
Thu 09:40:39 PM 35.8928 -104.7131 69° East 482 555 39,000  Level Albuquerque Center
Thu 09:41:41 PM 35.9397 -104.5578 69° East 480 552 39,000  Level Albuquerque Center
Thu 09:42:42 PM 35.9858 -104.4033 70° East 476 548 39,000  Level Albuquerque Center
Thu 09:43:44 PM 36.0336 -104.2469 69° East 479 551 39,000  Level Albuquerque Center
Thu 09:44:45 PM 36.0811 -104.0892 70° East 481 554 39,000 98 Level Albuquerque Center
Thu 09:45:47 PM 36.1350 -103.9058 70° East 482 555 39,200 537 Climbing Albuquerque Center
Thu 09:46:48 PM 36.1831 -103.7522 69° East 475 547 40,100 836 Climbing Albuquerque Center
Thu 09:47:49 PM 36.2286 -103.5967 70° East 475 547 40,900 439 Climbing Albuquerque Center
Thu 09:48:51 PM 36.2750 -103.4394 70° East 479 551 41,000 49 Climbing Albuquerque Center
Thu 09:49:52 PM 36.3206 -103.2800 70° East 483 556 41,000  Level Albuquerque Center
Thu 09:50:54 PM 36.3661 -103.1186 71° East 489 563 41,000  Level Albuquerque Center
Thu 09:51:55 PM 36.4133 -102.9619 69° East 483 556 41,000  Level Albuquerque Center
Thu 09:52:56 PM 36.4575 -102.7969 72° East 487 560 41,000  Level Albuquerque Center
Thu 09:53:58 PM 36.5036 -102.6406 70° East 483 556 41,000  Level Albuquerque Center
Thu 09:54:59 PM 36.5483 -102.4842 70° East 481 554 41,000  Level Albuquerque Center
Thu 09:56:00 PM 36.5911 -102.3281 71° East 477 549 41,000  Level Albuquerque Center
Thu 09:57:02 PM 36.6397 -102.1547 71° East 474 545 41,000  Level Albuquerque Center
Thu 09:58:03 PM 36.6814 -102.0053 71° East 476 548 41,000  Level Albuquerque Center
Thu 09:59:05 PM 36.7231 -101.8561 71° East 477 549 41,000  Level Albuquerque Center
Thu 10:00:06 PM 36.7708 -101.6792 71° East 480 552 41,000  Level Albuquerque Center
Thu 10:01:07 PM 36.8122 -101.5292 71° East 480 552 41,000  Level Albuquerque Center
Thu 10:02:15 PM 36.8606 -101.3497 71° East 487 560 41,000  Level Kansas City Center
Thu 10:03:17 PM 36.9100 -101.1717 71° East 488 562 41,000  Level Kansas City Center
Thu 10:04:18 PM 36.9500 -101.0197 72° East 485 558 41,000  Level Kansas City Center
Thu 10:05:19 PM 36.9981 -100.8394 71° East 489 563 41,000  Level Kansas City Center
Thu 10:06:21 PM 37.0400 -100.6850 71° East 491 565 41,000  Level Kansas City Center
Thu 10:07:22 PM 37.0864 -100.5044 72° East 492 566 41,000  Level Kansas City Center
Thu 10:08:23 PM 37.1267 -100.3497 72° East 491 565 41,000  Level Kansas City Center
Thu 10:09:25 PM 37.1681 -100.1969 71° East 489 563 41,000  Level Kansas City Center
Thu 10:10:26 PM 37.2136 -100.0169 72° East 488 562 41,000  Level Kansas City Center
Thu 10:11:27 PM 37.2522 -99.8642 72° East 484 557 41,000  Level Kansas City Center
Thu 10:12:28 PM 37.2983 -99.6858 72° East 483 556 41,000  Level Kansas City Center
Thu 10:13:30 PM 37.3367 -99.5319 73° East 483 556 41,000  Level Kansas City Center
Thu 10:14:31 PM 37.3756 -99.3828 72° East 489 563 41,000  Level Kansas City Center
Thu 10:15:32 PM 37.4156 -99.2206 73° East 488 562 41,000  Level Kansas City Center
Thu 10:16:34 PM 37.4539 -99.0578 73° East 485 558 41,000  Level Kansas City Center
Thu 10:17:35 PM 37.5022 -98.8636 73° East 486 559 41,000  Level Kansas City Center
Thu 10:18:36 PM 37.5422 -98.7008 73° East 487 560 41,000  Level Kansas City Center
Thu 10:19:38 PM 37.5817 -98.5375 73° East 488 562 41,000  Level Kansas City Center
Thu 10:20:39 PM 37.6225 -98.3753 72° East 489 563 41,000  Level Kansas City Center
Thu 10:21:41 PM 37.6611 -98.2117 73° East 489 563 41,000  Level Kansas City Center
Thu 10:22:42 PM 37.7017 -98.0344 74° East 486 559 41,000  Level Kansas City Center
Thu 10:23:44 PM 37.7403 -97.8678 74° East 490 564 41,000  Level Kansas City Center
Thu 10:24:45 PM 37.7786 -97.7000 74° East 494 568 41,000  Level Kansas City Center
Thu 10:25:47 PM 37.8178 -97.5353 73° East 490 564 41,000  Level Kansas City Center
Thu 10:26:48 PM 37.8600 -97.3611 73° East 497 572 41,000  Level Kansas City Center
Thu 10:27:49 PM 37.8978 -97.1958 74° East 491 565 41,000  Level Kansas City Center
Thu 10:28:51 PM 37.9364 -97.0306 73° East 492 566 41,000  Level Kansas City Center
Thu 10:29:52 PM 37.9744 -96.8631 74° East 494 568 41,000  Level Kansas City Center
Thu 10:30:53 PM 38.0111 -96.6961 74° East 493 567 41,000  Level Kansas City Center
Thu 10:31:55 PM 38.0564 -96.4969 74° East 491 565 41,000  Level Kansas City Center
Thu 10:32:56 PM 38.0936 -96.3294 74° East 493 567 41,000  Level Kansas City Center
Thu 10:33:58 PM 38.1303 -96.1619 74° East 493 567 41,000  Level Kansas City Center
Thu 10:34:59 PM 38.1631 -96.0067 75° East 488 562 41,000  Level Kansas City Center
Thu 10:36:00 PM 38.2047 -95.8164 74° East 499 574 41,000  Level Kansas City Center
Thu 10:37:02 PM 38.2392 -95.6536 75° East 500 575 41,000  Level Kansas City Center
Thu 10:38:03 PM 38.2792 -95.4647 75° East 498 573 41,000  Level Kansas City Center
Thu 10:39:05 PM 38.3139 -95.3019 75° East 499 574 41,000  Level Kansas City Center
Thu 10:40:06 PM 38.3533 -95.1153 75° East 495 570 41,000  Level Kansas City Center
Thu 10:41:07 PM 38.3861 -94.9542 75° East 494 568 41,000  Level Kansas City Center
Thu 10:42:09 PM 38.4206 -94.7947 75° East 491 565 41,000  Level Kansas City Center
Thu 10:43:10 PM 38.4594 -94.6022 75° East 496 571 41,000  Level Kansas City Center
Thu 10:44:11 PM 38.4919 -94.4433 75° East 494 568 41,000  Level Kansas City Center
Thu 10:45:13 PM 38.5297 -94.2533 76° East 499 574 41,000  Level Kansas City Center
Thu 10:46:14 PM 38.5625 -94.0886 76° East 500 575 41,000  Level Kansas City Center
Thu 10:47:15 PM 38.5939 -93.9239 76° East 501 577 41,000  Level Kansas City Center
Thu 10:48:16 PM 38.6347 -93.7225 75° East 507 583 41,000  Level Kansas City Center
Thu 10:49:18 PM 38.6692 -93.5475 76° East 506 582 41,000  Level Kansas City Center
Thu 10:50:19 PM 38.7031 -93.3722 76° East 506 582 41,000  Level Kansas City Center
Thu 10:51:20 PM 38.7356 -93.1967 77° East 505 581 41,000  Level Kansas City Center
Thu 10:52:22 PM 38.7703 -93.0175 76° East 510 587 41,000  Level Kansas City Center
Thu 10:53:23 PM 38.8031 -92.8422 76° East 508 585 41,000  Level Kansas City Center
Thu 10:54:24 PM 38.8339 -92.6658 77° East 506 582 41,000  Level Kansas City Center
Thu 10:55:25 PM 38.8672 -92.4900 76° East 506 582 41,000  Level Kansas City Center
Thu 10:56:27 PM 38.8986 -92.3131 77° East 505 581 41,000  Level Kansas City Center
Thu 10:57:28 PM 38.9300 -92.1381 77° East 503 579 41,000  Level Kansas City Center
Thu 10:58:29 PM 38.9614 -91.9619 77° East 502 578 41,000  Level Kansas City Center
Thu 10:59:30 PM 38.9922 -91.7881 77° East 500 575 41,000  Level Kansas City Center
Thu 11:00:32 PM 39.0261 -91.5975 77° East 497 572 41,000  Level Kansas City Center
Thu 11:01:33 PM 39.0561 -91.4250 77° East 495 570 41,000  Level Kansas City Center
Thu 11:02:34 PM 39.0856 -91.2525 78° East 495 570 41,000  Level Kansas City Center
Thu 11:03:35 PM 39.1156 -91.0808 77° East 492 566 41,000  Level Kansas City Center
Thu 11:04:36 PM 39.1439 -90.9097 78° East 489 563 41,000  Level Kansas City Center
Thu 11:05:38 PM 39.1736 -90.7383 77° East 489 563 41,000  Level Kansas City Center
Thu 11:06:39 PM 39.2028 -90.5636 78° East 494 568 41,000  Level Kansas City Center
Thu 11:07:40 PM 39.2311 -90.3911 78° East 492 566 41,000  Level Kansas City Center
Thu 11:08:41 PM 39.2597 -90.2189 78° East 489 563 41,000  Level Kansas City Center
Thu 11:09:42 PM 39.2928 -90.0119 78° East 489 563 41,000  Level Kansas City Center
Thu 11:10:44 PM 39.3203 -89.8403 78° East 487 560 41,000  Level Kansas City Center
Thu 11:11:45 PM 39.3469 -89.6697 79° East 486 559 41,000  Level Kansas City Center
Thu 11:12:46 PM 39.3733 -89.4975 79° East 487 560 41,000  Level Kansas City Center
Thu 11:13:47 PM 39.4006 -89.3283 78° East 484 557 41,000  Level Kansas City Center
Thu 11:14:49 PM 39.4283 -89.1414 79° East 485 558 41,000  Level Kansas City Center
Thu 11:15:50 PM 39.4544 -88.9703 79° East 488 562 41,000  Level Kansas City Center
Thu 11:16:51 PM 39.4792 -88.7978 79° East 489 563 41,000  Level Kansas City Center
Thu 11:17:52 PM 39.5067 -88.6247 78° East 491 565 41,000  Level Kansas City Center
Thu 11:18:53 PM 39.5269 -88.4606 81° East 488 562 41,000  Level Kansas City Center
Thu 11:19:55 PM 39.5431 -88.2836 83° East 491 565 41,000  Level Kansas City Center
Thu 11:20:56 PM 39.5608 -88.1056 83° East 493 567 41,000  Level Kansas City Center
Thu 11:21:57 PM 39.5772 -87.9294 83° East 491 565 41,000  Level Kansas City Center
Thu 11:22:28 PM 39.5850 -87.8358 84° East 483 556 41,000  Level Indianapolis Center
Thu 11:23:29 PM 39.5994 -87.6656 84° East 477 549 41,000  Level Indianapolis Center
Thu 11:24:30 PM 39.6167 -87.4967 82° East 475 547 41,000  Level Indianapolis Center
Thu 11:25:32 PM 39.6308 -87.3264 84° East 478 550 41,000  Level Indianapolis Center
Thu 11:26:33 PM 39.6494 -87.1203 83° East 480 552 41,000  Level Indianapolis Center
Thu 11:27:34 PM 39.6644 -86.9494 83° East 480 552 41,000  Level Indianapolis Center
Thu 11:28:35 PM 39.6778 -86.7786 84° East 479 551 41,000  Level Indianapolis Center
Thu 11:29:37 PM 39.6922 -86.6078 84° East 479 551 41,000  Level Indianapolis Center
Thu 11:30:38 PM 39.7053 -86.4381 84° East 479 551 41,000  Level Indianapolis Center
Thu 11:31:39 PM 39.7206 -86.2422 84° East 481 554 41,000  Level Indianapolis Center
Thu 11:32:41 PM 39.7342 -86.0739 84° East 482 555 41,000  Level Indianapolis Center
Thu 11:33:42 PM 39.7475 -85.8994 84° East 487 560 41,000  Level Indianapolis Center
Thu 11:34:43 PM 39.7606 -85.7239 84° East 490 564 41,000  Level Indianapolis Center
Thu 11:35:44 PM 39.7739 -85.5492 84° East 488 562 41,000  Level Indianapolis Center
Thu 11:36:46 PM 39.7858 -85.3756 85° East 484 557 41,000  Level Indianapolis Center
Thu 11:37:47 PM 39.7983 -85.2006 85° East 488 562 41,000  Level Indianapolis Center
Thu 11:38:48 PM 39.8097 -85.0231 85° East 494 568 41,000  Level Indianapolis Center
Thu 11:39:50 PM 39.8236 -84.8161 85° East 499 574 41,000  Level Indianapolis Center
Thu 11:40:51 PM 39.8353 -84.6358 85° East 497 572 41,000  Level Indianapolis Center
Thu 11:41:52 PM 39.8453 -84.4564 86° East 493 567 41,000  Level Indianapolis Center
Thu 11:42:53 PM 39.8567 -84.2792 85° East 488 562 41,000  Level Indianapolis Center
Thu 11:43:54 PM 39.8678 -84.1047 85° East 481 554 41,000  Level Indianapolis Center
Thu 11:44:56 PM 39.8781 -83.9308 86° East 478 550 41,000  Level Indianapolis Center
Thu 11:45:57 PM 39.8878 -83.7589 86° East 472 543 41,000  Level Indianapolis Center
Thu 11:46:58 PM 39.8958 -83.5983 86° East 464 534 41,000  Level Indianapolis Center
Thu 11:47:59 PM 39.9072 -83.3992 86° East 465 535 41,000  Level Indianapolis Center
Thu 11:49:00 PM 39.9167 -83.2428 85° East 461 531 41,000  Level Indianapolis Center
Thu 11:50:02 PM 39.9250 -83.0739 86° East 462 532 41,000  Level Indianapolis Center
Thu 11:51:03 PM 39.9328 -82.9019 87° East 467 537 41,000  Level Indianapolis Center
Thu 11:52:04 PM 39.9425 -82.7267 86° East 478 550 41,000  Level Indianapolis Center
Thu 11:53:05 PM 39.9500 -82.5525 87° East 479 551 41,000  Level Indianapolis Center
Thu 11:54:06 PM 39.9575 -82.3775 87° East 480 552 41,000  Level Indianapolis Center
Thu 11:55:07 PM 39.9653 -82.2006 87° East 484 557 41,000  Level Indianapolis Center
Thu 11:56:08 PM 39.9722 -82.0247 87° East 483 556 41,000  Level Indianapolis Center
Thu 11:57:09 PM 39.9753 -81.8497 89° East 483 556 41,000  Level Indianapolis Center
Thu 11:58:10 PM 39.9564 -81.6764 98° East 480 552 41,000  Level Indianapolis Center
Thu 11:59:11 PM 39.9383 -81.5011 98° East 482 555 41,000  Level Indianapolis Center
Fri 12:00:12 AM 39.9206 -81.3281 98° East 483 556 41,000  Level Indianapolis Center
Fri 12:01:13 AM 39.9017 -81.1522 98° East 488 562 41,000  Level Indianapolis Center
Fri 12:01:33 AM 39.8972 -81.0808 95° East 483 556 41,000  Level Cleveland Center
Fri 12:02:33 AM 39.8769 -80.9078 99° East 483 556 41,000  Level Cleveland Center
Fri 12:03:34 AM 39.8586 -80.7317 98° East 483 556 41,000  Level Cleveland Center
Fri 12:05:17 AM 39.8183 -80.4089 99° East 496 571 41,000  Level Indianapolis Center
Fri 12:05:42 AM 39.8139 -80.3406 95° East 487 560 41,000 -643 Level Washington Center
Fri 12:06:41 AM 39.7936 -80.1692 99° East 487 560 40,100 -1,627 Descending Washington Center
Fri 12:07:40 AM 39.7744 -80.0111 99° East 487 560 37,800 -1,983 Descending Washington Center
Fri 12:08:42 AM 39.7556 -79.8428 98° East 487 560 36,100 -1,884 Descending Washington Center
Fri 12:09:41 AM 39.7342 -79.6714 99° East 487 560 34,000 -2,644 Descending Washington Center
Fri 12:10:40 AM 39.7150 -79.4978 98° East 487 560 30,900 -2,874 Descending Washington Center
Fri 12:11:40 AM 39.6933 -79.3292 99° East 482 555 28,300 -2,459 Descending Washington Center
Fri 12:12:42 AM 39.6733 -79.1639 99° East 472 543 25,900 -1,636 Descending Washington Center
Fri 12:13:41 AM 39.6464 -79.0114 103° East 453 521 25,000 -454 Descending Washington Center
Fri 12:14:41 AM 39.6094 -78.8428 106° East 441 507 25,000  Level Washington Center
Fri 12:15:42 AM 39.5778 -78.6958 106° East 436 502 25,000  Level Washington Center
Fri 12:16:42 AM 39.5442 -78.5464 106° East 431 496 25,000 -595 Level Washington Center
Fri 12:17:43 AM 39.5100 -78.3997 107° East 426 490 23,800 -1,750 Descending Washington Center
Fri 12:18:42 AM 39.4778 -78.2586 106° East 426 490 21,500 -2,256 Descending Washington Center
Fri 12:19:40 AM 39.4475 -78.1206 106° East 408 470 19,400 -2,100 Descending Washington Center
Fri 12:20:42 AM 39.4150 -77.9850 107° East 397 457 17,300 -2,098 Descending Washington Center
Fri 12:21:43 AM 39.3883 -77.8525 105° East 392 451 15,100 -1,169 Descending Washington Center
Fri 12:22:40 AM 39.3967 -77.7375 85° East 366 421 15,000 -51 Descending Washington Center
Fri 12:23:40 AM 39.4133 -77.6064 81° East 366 421 15,000  Level Washington Center
Fri 12:24:40 AM 39.3864 -77.4739 105° East 366 421 15,000  Level Washington Center
Fri 12:25:40 AM 39.3528 -77.3469 109° East 366 421 15,000 -1,210 Level Washington Center
Fri 12:26:39 AM 39.3167 -77.2000 108° East 375 432 12,600 -1,966 Descending Potomac TRACON
Fri 12:27:39 AM 39.2667 -77.1000 123° Southeast 336 387 11,100 -1,750 Descending Potomac TRACON
Fri 12:28:39 AM 39.2333 -77.0000 113° Southeast 305 351 9,100 -2,105 Descending Potomac TRACON
Fri 12:29:33 AM 39.2000 -76.9167 117° Southeast 315 362 7,100 -2,158 Descending Potomac TRACON
Fri 12:30:33 AM 39.1667 -76.8167 113° Southeast 301 346 5,000 -2,000 Descending Potomac TRACON
Fri 12:31:33 AM 39.1167 -76.7167 123° Southeast 288 331 3,100 -1,000 Descending Potomac TRACON
Fri 12:32:33 AM 39.0833 -76.6500 123° Southeast 232 267 3,000 -700 Descending Potomac TRACON
Fri 12:33:33 AM 39.1000 -76.6167 57° Northeast 191 220 1,700 -1,050 Descending Potomac TRACON
Fri 12:34:33 AM 39.1333 -76.6333 339° North 130 150 900 -800 Descending Potomac TRACON
Fri 12:36:00 AM 39.1667 -76.6667 351° North  Level FlightAware Approximate
Fri 12:43:00 AM 39.1754 -76.6683 351° North  Level Estimated
Fri 12:44:00 AM 39.1754 -76.6683 351° North  Level Estimated
Fri 12:45:00 AM 39.1754 -76.6683 351° North  Level Estimated
Fri 12:46:00 AM 39.1754 -76.6683 351° North  Level Estimated
Fri 12:47:00 AM 39.1754 -76.6683 351° North  Level Estimated

Login

Don't have an account? Register now (free) for customized features, flight alerts, and more!